createdAt,value
2018-04-27T00:03:18.947Z,54.30
2018-04-27T00:08:21.462Z,54.30
2018-04-27T00:13:23.980Z,54.40
2018-04-27T00:18:26.487Z,54.40
2018-04-27T00:23:29.748Z,54.30
2018-04-27T00:28:32.268Z,54.20
2018-04-27T00:33:34.772Z,54.40
2018-04-27T00:38:38.043Z,54.30
2018-04-27T00:43:40.575Z,54.30
2018-04-27T00:48:43.085Z,54.40
2018-04-27T00:53:46.351Z,54.30
2018-04-27T00:58:48.864Z,54.30
2018-04-27T01:03:51.363Z,55.10
2018-04-27T01:08:53.856Z,54.30
2018-04-27T01:13:56.386Z,54.30
2018-04-27T01:18:58.888Z,54.30
2018-04-27T01:24:01.395Z,54.40
2018-04-27T01:29:03.887Z,54.30
2018-04-27T01:34:06.396Z,54.30
2018-04-27T01:39:08.903Z,54.30
2018-04-27T01:44:11.403Z,54.30
2018-04-27T01:49:13.907Z,54.30
2018-04-27T01:54:17.175Z,54.40
2018-04-27T01:59:19.688Z,54.20
2018-04-27T02:04:22.179Z,53.90
2018-04-27T02:09:24.667Z,54.10
2018-04-27T02:14:27.196Z,54.30
2018-04-27T02:19:30.462Z,54.10
2018-04-27T02:24:32.959Z,54.10
2018-04-27T02:29:35.460Z,54.00
2018-04-27T02:34:37.971Z,54.20
2018-04-27T02:39:41.228Z,54.40
2018-04-27T02:44:43.746Z,54.20
2018-04-27T02:49:46.272Z,54.30
2018-04-27T02:54:49.540Z,54.30
2018-04-27T02:59:52.051Z,54.20
2018-04-27T03:04:54.548Z,54.20
2018-04-27T03:09:57.048Z,54.10
2018-04-27T03:14:59.555Z,54.20
2018-04-27T03:20:02.817Z,54.20
2018-04-27T03:25:05.303Z,54.20
2018-04-27T03:30:07.816Z,54.20
2018-04-27T03:35:10.319Z,54.20
2018-04-27T03:40:13.072Z,54.20
2018-04-27T03:45:15.583Z,54.00
2018-04-27T03:50:18.091Z,54.00
2018-04-27T03:55:20.591Z,54.00
2018-04-27T04:00:34.956Z,54.10
2018-04-27T04:05:37.455Z,54.10
2018-04-27T04:10:39.955Z,54.10
2018-04-27T04:15:42.464Z,54.20
2018-04-27T04:20:45.753Z,54.30
2018-04-27T04:25:48.252Z,54.10
2018-04-27T04:30:50.755Z,54.00
2018-04-27T04:35:53.252Z,53.90
2018-04-27T04:40:56.547Z,54.40
2018-04-27T04:45:59.047Z,54.10
2018-04-27T04:51:01.547Z,54.10
2018-04-27T04:56:05.562Z,54.30
2018-04-27T05:01:08.047Z,54.20
2018-04-27T05:06:10.540Z,54.30
2018-04-27T05:11:13.032Z,54.10
2018-04-27T05:16:15.544Z,54.00
2018-04-27T05:21:18.040Z,54.00
2018-04-27T05:26:21.296Z,54.90
2018-04-27T05:31:25.292Z,53.90
2018-04-27T05:36:28.556Z,54.10
2018-04-27T05:41:31.047Z,54.00
2018-04-27T05:46:33.556Z,54.10
2018-04-27T05:51:36.044Z,54.00
2018-04-27T05:56:38.541Z,54.10
2018-04-27T06:01:41.028Z,54.70
2018-04-27T06:06:43.523Z,54.10
2018-04-27T06:11:46.019Z,54.10
2018-04-27T06:16:48.515Z,54.10
2018-04-27T06:21:51.003Z,54.10
2018-04-27T06:26:53.507Z,54.40
2018-04-27T06:31:56.012Z,54.20
2018-04-27T06:36:59.279Z,54.40
2018-04-27T06:42:01.799Z,54.30
2018-04-27T06:47:04.306Z,54.30
2018-04-27T06:52:07.564Z,54.20
2018-04-27T06:57:10.068Z,54.40
2018-04-27T07:02:12.579Z,54.30
2018-04-27T07:07:15.089Z,54.10
2018-04-27T07:12:17.579Z,54.20
2018-04-27T07:17:20.115Z,54.10
2018-04-27T07:22:22.611Z,54.30
2018-04-27T07:27:25.119Z,54.40
2018-04-27T07:32:27.636Z,54.40
2018-04-27T07:37:30.139Z,54.20
2018-04-27T07:42:32.643Z,54.30
2018-04-27T07:47:35.908Z,54.40
2018-04-27T07:52:38.424Z,54.40
2018-04-27T07:57:40.945Z,54.40
2018-04-27T08:02:44.207Z,54.00
2018-04-27T08:07:46.719Z,53.90
2018-04-27T08:12:49.224Z,53.90
2018-04-27T08:17:51.727Z,53.80
2018-04-27T08:22:55.803Z,53.80
2018-04-27T08:27:58.318Z,53.80
2018-04-27T08:33:00.819Z,53.70
2018-04-27T08:38:03.324Z,53.70
2018-04-27T08:43:05.818Z,53.30
2018-04-27T08:48:08.316Z,53.30
2018-04-27T08:53:10.823Z,53.10
2018-04-27T08:58:14.095Z,53.00
2018-04-27T09:03:16.612Z,52.80
2018-04-27T09:08:19.115Z,52.60
2018-04-27T09:13:22.399Z,52.60
2018-04-27T09:18:24.904Z,52.50
2018-04-27T09:23:27.416Z,52.40
2018-04-27T09:28:30.687Z,52.20
2018-04-27T09:33:33.195Z,52.30
2018-04-27T09:38:35.691Z,52.70
2018-04-27T09:43:38.195Z,51.80
2018-04-27T09:48:40.712Z,52.00
2018-04-27T09:53:43.979Z,51.70
2018-04-27T09:58:46.506Z,51.60
2018-04-27T10:03:49.767Z,51.40
2018-04-27T10:08:52.268Z,51.10
2018-04-27T10:13:54.776Z,51.20
2018-04-27T10:18:57.255Z,51.40
2018-04-27T10:24:00.523Z,51.10
2018-04-27T10:29:03.032Z,50.80
2018-04-27T10:34:05.535Z,49.60
2018-04-27T10:39:08.035Z,51.70
2018-04-27T10:44:10.535Z,51.80
2018-04-27T10:49:13.027Z,51.80
2018-04-27T10:54:15.515Z,51.50
2018-04-27T10:59:18.032Z,52.10
2018-04-27T11:04:20.539Z,51.60
2018-04-27T11:09:23.808Z,51.80
2018-04-27T11:14:26.316Z,51.50
2018-04-27T11:19:28.820Z,50.80
2018-04-27T11:24:31.328Z,50.10
2018-04-27T11:29:33.823Z,49.70
2018-04-27T11:34:37.085Z,49.00
2018-04-27T11:39:39.584Z,49.00
2018-04-27T11:44:42.086Z,48.70
2018-04-27T11:49:44.615Z,48.70
2018-04-27T11:54:47.102Z,49.10
2018-04-27T11:59:50.356Z,49.70
2018-04-27T12:04:52.864Z,49.80
2018-04-27T12:09:55.369Z,49.50
2018-04-27T12:14:57.863Z,49.40
2018-04-27T12:20:00.351Z,48.70
2018-04-27T12:25:02.848Z,45.80
2018-04-27T12:30:05.343Z,46.60
2018-04-27T12:35:08.739Z,46.10
2018-04-27T12:40:11.256Z,46.80
2018-04-27T12:45:13.763Z,46.20
2018-04-27T12:50:16.260Z,46.90
2018-04-27T12:55:19.529Z,45.90
2018-04-27T13:00:22.781Z,45.80
2018-04-27T13:05:26.043Z,46.40
2018-04-27T13:10:28.568Z,46.50
2018-04-27T13:15:31.072Z,45.70
2018-04-27T13:20:33.571Z,45.80
2018-04-27T13:25:36.088Z,46.60
2018-04-27T13:30:38.588Z,46.70
2018-04-27T13:35:41.108Z,45.20
2018-04-27T13:40:43.603Z,43.70
2018-04-27T13:45:46.105Z,44.70
2018-04-27T13:50:48.608Z,46.20
2018-04-27T13:55:51.108Z,45.90
2018-04-27T14:00:53.611Z,47.10
2018-04-27T14:05:56.900Z,46.20
2018-04-27T14:10:59.400Z,46.20
2018-04-27T14:16:01.896Z,47.00
2018-04-27T14:21:04.404Z,45.70
2018-04-27T14:26:07.675Z,42.80
2018-04-27T14:31:10.180Z,42.70
2018-04-27T14:36:12.708Z,43.60
2018-04-27T14:41:15.977Z,41.70
2018-04-27T14:46:18.487Z,41.70
2018-04-27T14:51:20.997Z,39.80
2018-04-27T14:56:24.271Z,41.50
2018-04-27T15:01:26.771Z,41.30
2018-04-27T15:06:29.288Z,41.70
2018-04-27T15:11:31.768Z,41.90
2018-04-27T15:16:34.267Z,42.40
2018-04-27T15:21:36.772Z,42.60
2018-04-27T15:26:40.061Z,37.20
2018-04-27T15:31:42.569Z,37.00
2018-04-27T15:36:45.059Z,37.20
2018-04-27T15:41:47.563Z,37.10
2018-04-27T15:46:50.843Z,36.90
2018-04-27T15:51:53.348Z,37.10
2018-04-27T15:56:55.853Z,37.20
2018-04-27T16:01:58.375Z,36.30
2018-04-27T16:07:00.894Z,37.20
2018-04-27T16:12:03.393Z,36.60
2018-04-27T16:17:05.913Z,36.90
2018-04-27T16:22:08.430Z,36.20
2018-04-27T16:27:11.700Z,35.90
2018-04-27T16:32:14.203Z,36.00
2018-04-27T16:37:16.728Z,35.30
2018-04-27T16:42:19.979Z,38.40
2018-04-27T16:47:22.476Z,38.50
2018-04-27T16:52:24.995Z,37.40
2018-04-27T16:57:27.524Z,38.40
2018-04-27T17:02:30.007Z,37.70
2018-04-27T17:07:33.276Z,37.20
2018-04-27T17:12:35.792Z,37.10
2018-04-27T17:17:38.292Z,37.70
2018-04-27T17:22:41.661Z,38.70
2018-04-27T17:27:44.099Z,38.70
2018-04-27T17:32:47.351Z,39.40
2018-04-27T17:37:50.606Z,39.70
2018-04-27T17:42:53.115Z,39.90
2018-04-27T17:47:56.384Z,39.10
2018-04-27T17:52:58.887Z,39.20
2018-04-27T17:58:02.159Z,39.30
2018-04-27T18:03:04.656Z,39.50
2018-04-27T18:08:07.159Z,39.80
2018-04-27T18:13:09.693Z,40.00
2018-04-27T18:18:12.288Z,40.20
2018-04-27T18:23:14.732Z,40.50
2018-04-27T18:28:18.532Z,40.70
2018-04-27T18:33:21.887Z,41.70
2018-04-27T18:38:24.355Z,41.90
2018-04-27T18:43:26.848Z,41.30
2018-04-27T18:48:29.352Z,41.80
2018-04-27T18:53:33.644Z,41.70
2018-04-27T18:58:36.911Z,42.10
2018-04-27T19:03:39.421Z,42.40
2018-04-27T19:08:41.912Z,42.20
2018-04-27T19:13:45.102Z,42.50
2018-04-27T19:18:47.607Z,43.00
2018-04-27T19:23:50.951Z,43.50
2018-04-27T19:28:54.226Z,43.70
2018-04-27T19:33:57.500Z,43.60
2018-04-27T19:39:00.033Z,43.50
2018-04-27T19:44:02.527Z,43.50
2018-04-27T19:49:05.031Z,43.50
2018-04-27T19:54:07.556Z,43.50
2018-04-27T19:59:10.828Z,44.00
2018-04-27T20:04:13.327Z,44.00
2018-04-27T20:09:15.819Z,44.30
2018-04-27T20:14:28.251Z,44.10
2018-04-27T20:19:30.740Z,44.60
2018-04-27T20:24:33.247Z,44.80
2018-04-27T20:29:35.824Z,45.00
2018-04-27T20:34:39.020Z,44.90
2018-04-27T20:39:41.529Z,45.10
2018-04-27T20:44:44.029Z,45.20
2018-04-27T20:49:46.523Z,45.40
2018-04-27T20:54:49.872Z,45.40
2018-04-27T20:59:52.425Z,45.30
2018-04-27T21:04:54.891Z,45.50
2018-04-27T21:09:57.394Z,45.60
2018-04-27T21:14:59.913Z,45.60
2018-04-27T21:20:03.175Z,45.50
2018-04-27T21:25:05.696Z,45.60
2018-04-27T21:30:08.233Z,45.60
2018-04-27T21:35:10.688Z,45.80
2018-04-27T21:40:13.180Z,45.80
2018-04-27T21:45:15.681Z,46.10
2018-04-27T21:50:19.746Z,46.40
2018-04-27T21:55:22.239Z,45.60
2018-04-27T22:00:25.456Z,46.10
2018-04-27T22:11:04.342Z,46.20
2018-04-27T22:16:21.599Z,46.30
2018-04-27T22:21:24.283Z,46.60
2018-04-27T22:26:26.792Z,46.50
2018-04-27T22:31:30.250Z,46.60
2018-04-27T22:36:41.537Z,46.80
2018-04-27T22:47:18.243Z,46.50
2018-04-27T22:52:20.712Z,46.90
2018-04-27T22:57:24.983Z,46.80
2018-04-27T23:02:27.460Z,46.70
2018-04-27T23:07:37.499Z,46.90
2018-04-27T23:18:38.564Z,46.70
2018-04-27T23:23:45.907Z,47.00
2018-04-27T23:28:48.535Z,46.90
2018-04-27T23:33:52.039Z,47.00
2018-04-27T23:38:55.503Z,47.00
2018-04-27T23:43:58.140Z,47.00
2018-04-27T23:49:04.537Z,46.90
2018-04-27T23:54:08.032Z,47.20
2018-04-27T23:59:10.590Z,47.00
